createdAt,value
2022-11-17T06:12:50.326Z,1.60
2022-11-17T06:15:17.184Z,1.50
2022-11-17T06:18:33.491Z,1.60
2022-11-17T06:21:00.693Z,1.60
2022-11-17T06:23:40.784Z,1.50
2022-11-17T06:26:09.797Z,1.60
2022-11-17T06:28:39.894Z,1.60
2022-11-17T06:31:08.052Z,1.60
2022-11-17T06:33:39.464Z,1.60
2022-11-17T06:36:08.188Z,1.60
2022-11-17T06:38:36.336Z,1.70
2022-11-17T06:41:08.911Z,1.80
2022-11-17T06:43:38.854Z,1.80
2022-11-17T06:46:06.474Z,1.80
2022-11-17T06:48:36.148Z,1.70
2022-11-17T06:51:04.836Z,1.70
2022-11-17T06:53:33.892Z,1.70
2022-11-17T06:56:07.349Z,1.90
2022-11-17T06:58:36.171Z,1.80
2022-11-17T07:01:13.542Z,1.80
2022-11-17T07:03:43.078Z,1.90
2022-11-17T07:06:11.295Z,2.00
2022-11-17T07:08:38.784Z,1.90
2022-11-17T07:11:11.754Z,2.00
2022-11-17T07:13:39.190Z,1.90
2022-11-17T07:16:12.688Z,2.00
2022-11-17T07:18:41.930Z,1.80
2022-11-17T07:21:11.321Z,1.90
2022-11-17T07:23:39.090Z,1.90
2022-11-17T07:26:06.598Z,1.90
2022-11-17T07:28:36.085Z,1.80
2022-11-17T07:31:06.048Z,1.90
2022-11-17T07:33:33.008Z,1.80
2022-11-17T07:36:07.982Z,1.90
2022-11-17T07:38:35.937Z,1.80
2022-11-17T07:41:04.240Z,1.80
2022-11-17T07:43:31.295Z,1.90
2022-11-17T07:45:58.222Z,1.90
2022-11-17T07:48:25.210Z,1.80
2022-11-17T07:50:52.157Z,1.90
2022-11-17T07:53:19.068Z,1.80
2022-11-17T07:55:45.996Z,1.90
2022-11-17T07:58:13.010Z,1.80
2022-11-17T08:00:39.998Z,2.00
2022-11-17T08:03:07.574Z,2.00
2022-11-17T08:05:41.538Z,2.10
2022-11-17T08:08:12.519Z,2.10
2022-11-17T08:10:39.570Z,2.10
2022-11-17T08:13:07.767Z,2.20
2022-11-17T08:15:35.033Z,2.20
2022-11-17T08:18:02.737Z,2.10
2022-11-17T08:20:30.173Z,2.20
2022-11-17T08:22:57.364Z,2.20
2022-11-17T08:25:26.039Z,2.10
2022-11-17T12:12:37.116Z,3.10
2022-11-17T12:15:13.330Z,3.10
2022-11-17T12:17:52.507Z,3.20
2022-11-17T12:20:31.839Z,3.40
2022-11-17T12:23:10.243Z,3.20
2022-11-17T12:25:53.265Z,3.10
2022-11-17T12:28:36.956Z,3.20
2022-11-17T12:31:10.924Z,3.30
2022-11-17T12:33:54.088Z,3.40
2022-11-17T12:36:32.653Z,3.10
2022-11-17T12:39:01.824Z,3.20
2022-11-17T12:42:08.478Z,3.30
2022-11-17T12:44:38.551Z,3.30
2022-11-17T12:47:23.363Z,3.40
2022-11-17T12:50:11.716Z,3.30
2022-11-17T12:52:57.294Z,3.20
2022-11-17T12:55:40.656Z,3.30
2022-11-17T12:58:28.399Z,3.20
2022-11-17T13:01:22.281Z,3.20
2022-11-17T13:04:10.218Z,3.20
2022-11-17T13:06:38.615Z,3.20
2022-11-17T13:09:08.265Z,3.10
2022-11-17T13:11:36.012Z,3.20
2022-11-17T13:14:16.179Z,3.20
2022-11-17T13:16:50.988Z,3.10
2022-11-17T13:19:30.206Z,3.20
2022-11-17T13:22:25.985Z,3.20
2022-11-17T13:24:54.067Z,3.10
2022-11-17T13:27:30.526Z,3.20
2022-11-17T13:30:14.980Z,3.30
2022-11-17T13:32:43.247Z,3.40
2022-11-17T13:35:26.474Z,3.30
2022-11-17T13:38:24.304Z,3.30
2022-11-17T13:40:53.605Z,3.30
2022-11-17T13:43:22.707Z,3.30
2022-11-17T13:45:50.899Z,3.10
2022-11-17T13:48:45.602Z,3.20
2022-11-17T13:51:31.248Z,3.30
2022-11-17T13:53:58.298Z,3.20
2022-11-17T13:56:35.747Z,3.10
2022-11-17T13:59:20.352Z,3.10
2022-11-17T14:01:48.225Z,3.00
2022-11-17T14:04:20.048Z,3.10
2022-11-17T14:06:56.780Z,3.00
2022-11-17T14:09:25.206Z,2.90
2022-11-17T14:11:52.418Z,3.00
2022-11-17T14:14:23.824Z,3.00
2022-11-17T14:16:50.783Z,2.90
2022-11-17T14:19:18.154Z,3.00
2022-11-17T14:22:09.879Z,3.00
2022-11-17T14:24:38.306Z,2.90
2022-11-17T14:27:36.623Z,2.90
2022-11-17T14:30:05.851Z,2.90
2022-11-17T14:32:38.092Z,2.80
2022-11-17T14:35:05.753Z,3.00
2022-11-17T14:37:33.128Z,3.00
2022-11-17T14:40:05.300Z,2.90
2022-11-17T14:42:35.962Z,2.80
2022-11-17T14:45:03.666Z,2.70
2022-11-17T14:47:31.233Z,2.80
2022-11-17T14:49:58.389Z,2.80
2022-11-17T14:52:25.438Z,2.60
2022-11-17T14:54:52.351Z,2.50
2022-11-17T14:57:19.394Z,2.40
2022-11-17T14:59:46.464Z,2.40
2022-11-17T15:02:13.851Z,2.50
2022-11-17T15:04:50.669Z,2.40
2022-11-17T15:07:18.541Z,2.30
2022-11-17T15:12:30.545Z,2.30
2022-11-17T15:14:59.943Z,2.40
2022-11-17T15:17:28.083Z,2.40
2022-11-17T15:19:58.910Z,2.50
2022-11-17T15:22:25.983Z,2.30
2022-11-17T15:24:55.610Z,2.40
2022-11-17T15:27:23.297Z,2.50
2022-11-17T15:29:50.589Z,2.60
2022-11-17T15:32:20.949Z,2.60
2022-11-17T15:34:48.941Z,2.40
2022-11-17T15:37:17.326Z,2.20
2022-11-17T15:39:46.446Z,2.20
2022-11-17T15:42:14.202Z,2.30
2022-11-17T15:44:41.304Z,2.00
2022-11-17T15:47:12.264Z,2.20
2022-11-17T15:49:39.290Z,2.20
2022-11-17T15:52:06.226Z,2.00
2022-11-17T15:54:33.173Z,2.00
2022-11-17T15:57:01.621Z,1.90
2022-11-17T15:59:28.645Z,2.00
2022-11-17T16:01:55.730Z,2.10
2022-11-17T16:04:24.801Z,1.90
2022-11-17T16:06:52.051Z,2.00
2022-11-17T16:09:19.193Z,2.00
2022-11-17T16:11:46.698Z,1.90
2022-11-17T16:14:15.120Z,2.00
2022-11-17T16:16:47.191Z,1.80
2022-11-17T16:19:15.029Z,1.90
2022-11-17T16:21:42.639Z,1.90
2022-11-17T16:24:11.822Z,1.90
2022-11-17T16:26:38.731Z,1.80
2022-11-17T16:29:08.920Z,1.70
2022-11-17T16:31:36.795Z,1.60
2022-11-17T16:34:08.065Z,1.40
2022-11-17T16:36:37.890Z,1.60
2022-11-17T16:50:14.822Z,1.60
2022-11-17T17:26:50.284Z,1.50
2022-11-17T17:32:24.037Z,1.50
2022-11-17T17:38:32.615Z,1.50
2022-11-17T17:44:35.014Z,1.10
2022-11-17T17:48:04.085Z,1.10
2022-11-17T17:52:55.719Z,1.10
2022-11-17T17:56:17.158Z,1.10
2022-11-17T18:02:19.600Z,1.10
2022-11-17T18:05:10.471Z,1.20
2022-11-17T18:11:41.534Z,1.30
2022-11-17T18:16:05.126Z,1.20
2022-11-17T18:18:22.587Z,1.00
2022-11-17T18:35:09.313Z,0.80
2022-11-17T18:38:23.441Z,0.80
2022-11-17T18:45:25.194Z,0.80
2022-11-17T18:51:31.889Z,0.90
2022-11-17T18:54:01.093Z,0.80
2022-11-17T18:56:34.070Z,0.80
2022-11-17T19:02:28.194Z,0.90
2022-11-17T19:11:04.718Z,1.00
2022-11-17T19:13:35.265Z,1.00
2022-11-17T19:16:11.337Z,1.10
2022-11-17T19:18:39.083Z,1.20
2022-11-17T19:21:08.462Z,1.10
2022-11-17T19:23:36.936Z,1.10
2022-11-17T19:26:09.888Z,1.10
2022-11-17T19:28:37.287Z,1.20
2022-11-17T19:31:08.491Z,1.30
2022-11-17T19:33:37.087Z,1.20
2022-11-17T19:36:15.957Z,1.10
2022-11-17T19:38:43.536Z,1.20
2022-11-17T19:41:20.420Z,1.20
2022-11-17T19:43:47.523Z,1.10
2022-11-17T19:46:16.839Z,1.00
2022-11-17T19:48:45.188Z,1.20
2022-11-17T19:51:19.062Z,1.10
2022-11-17T19:53:55.086Z,1.10
2022-11-17T19:56:23.697Z,1.20
2022-11-17T19:58:53.139Z,1.10
2022-11-17T20:05:02.520Z,1.20
2022-11-17T20:39:04.586Z,1.40
2022-11-17T20:41:31.926Z,1.30
2022-11-17T20:44:00.568Z,1.40
2022-11-17T20:46:28.155Z,1.40
2022-11-17T20:48:57.278Z,1.40
2022-11-17T20:52:13.052Z,1.40
2022-11-17T20:55:16.780Z,1.60
2022-11-17T21:01:25.371Z,1.30
2022-11-17T21:10:12.598Z,1.50
2022-11-17T21:19:00.411Z,1.50
2022-11-17T21:21:28.287Z,1.50
2022-11-17T21:23:55.730Z,1.50
2022-11-17T21:26:23.594Z,1.50
2022-11-17T21:31:33.334Z,1.40
2022-11-17T21:34:08.630Z,1.50
2022-11-17T21:36:36.478Z,1.50
2022-11-17T21:39:04.612Z,1.50
2022-11-17T21:41:35.681Z,1.40
2022-11-17T21:44:03.711Z,1.40
2022-11-17T21:46:36.391Z,1.40
2022-11-17T21:49:03.834Z,1.40
2022-11-17T21:51:38.616Z,1.50
2022-11-17T21:54:10.150Z,1.40
2022-11-17T21:56:37.811Z,1.40
2022-11-17T21:59:07.298Z,1.40
2022-11-17T22:01:35.552Z,1.40
2022-11-17T22:04:03.077Z,1.50
2022-11-17T22:06:30.506Z,1.50
2022-11-17T22:08:59.257Z,1.40
2022-11-17T22:11:39.096Z,1.40
2022-11-17T22:14:19.261Z,1.40
2022-11-17T22:16:51.683Z,1.50
2022-11-17T22:19:20.047Z,1.50
2022-11-17T22:21:52.390Z,1.60
2022-11-17T22:24:20.091Z,1.60
2022-11-17T22:26:47.962Z,1.60
2022-11-17T22:29:19.685Z,1.60
2022-11-17T22:32:08.407Z,1.60
2022-11-17T22:34:35.401Z,1.60
2022-11-17T22:37:02.782Z,1.60
2022-11-17T22:39:30.018Z,1.60
2022-11-17T22:41:56.991Z,1.60
2022-11-17T22:44:24.065Z,1.70
2022-11-17T22:46:51.939Z,1.70
2022-11-17T22:49:19.137Z,1.60
2022-11-17T22:52:04.466Z,1.60
2022-11-17T22:54:32.007Z,1.60
2022-11-17T22:56:59.237Z,1.60
2022-11-17T22:59:28.053Z,1.60
2022-11-17T23:01:56.066Z,1.70
2022-11-17T23:04:23.401Z,1.80
2022-11-17T23:06:50.457Z,1.80
2022-11-17T23:09:17.885Z,1.80
2022-11-17T23:11:45.852Z,1.80
2022-11-17T23:14:14.444Z,1.80
2022-11-17T23:16:41.691Z,1.90
2022-11-17T23:19:12.934Z,1.90
2022-11-17T23:21:40.104Z,1.90
2022-11-17T23:24:10.014Z,1.90
2022-11-17T23:26:36.921Z,2.00
2022-11-17T23:29:03.843Z,1.90
2022-11-17T23:31:30.760Z,2.00
2022-11-17T23:33:58.034Z,2.00
2022-11-17T23:36:25.258Z,1.90
2022-11-17T23:38:54.580Z,2.00
2022-11-17T23:41:21.723Z,2.10
2022-11-17T23:43:53.472Z,2.10
2022-11-17T23:46:24.083Z,2.10
2022-11-17T23:48:51.177Z,2.20
2022-11-17T23:51:20.701Z,2.20
2022-11-17T23:53:50.360Z,2.20
2022-11-17T23:56:19.542Z,2.20
2022-11-17T23:58:46.716Z,2.20
